sensor_id;sensor_type;location;lat;lon;timestamp;pressure;altitude;pressure_sealevel;temperature;humidity
13604;BME280;24578;48.264;11.436;2022-07-04T00:02:51;96320.16;;;19.85;75.51
13604;BME280;24578;48.264;11.436;2022-07-04T00:05:51;96323.44;;;19.87;74.99
13604;BME280;24578;48.264;11.436;2022-07-04T00:08:52;96333.28;;;19.93;74.32
13604;BME280;24578;48.264;11.436;2022-07-04T00:11:52;96336.91;;;20.00;74.99
13604;BME280;24578;48.264;11.436;2022-07-04T00:14:53;96329.03;;;20.00;76.19
13604;BME280;24578;48.264;11.436;2022-07-04T00:17:53;96331.16;;;20.05;77.88
13604;BME280;24578;48.264;11.436;2022-07-04T00:20:54;96321.78;;;20.02;78.57
13604;BME280;24578;48.264;11.436;2022-07-04T00:23:55;96328.00;;;20.01;80.45
13604;BME280;24578;48.264;11.436;2022-07-04T00:26:55;96329.69;;;19.94;81.05
13604;BME280;24578;48.264;11.436;2022-07-04T00:29:56;96319.84;;;19.88;81.82
13604;BME280;24578;48.264;11.436;2022-07-04T00:32:56;96309.97;;;19.73;82.43
13604;BME280;24578;48.264;11.436;2022-07-04T00:35:57;96301.13;;;19.74;84.01
13604;BME280;24578;48.264;11.436;2022-07-04T00:38:57;96302.28;;;19.72;83.96
13604;BME280;24578;48.264;11.436;2022-07-04T00:41:58;96284.41;;;19.59;84.47
13604;BME280;24578;48.264;11.436;2022-07-04T00:44:58;96292.13;;;19.52;86.07
13604;BME280;24578;48.264;11.436;2022-07-04T00:47:59;96273.59;;;19.45;85.97
13604;BME280;24578;48.264;11.436;2022-07-04T00:51:00;96279.50;;;19.39;87.64
13604;BME280;24578;48.264;11.436;2022-07-04T00:54:00;96280.53;;;19.38;87.61
13604;BME280;24578;48.264;11.436;2022-07-04T00:57:01;96289.22;;;19.30;87.85
13604;BME280;24578;48.264;11.436;2022-07-04T01:00:02;96303.47;;;19.28;87.65
13604;BME280;24578;48.264;11.436;2022-07-04T01:03:03;96296.88;;;19.24;87.28
13604;BME280;24578;48.264;11.436;2022-07-04T01:06:06;96306.09;;;19.20;87.22
13604;BME280;24578;48.264;11.436;2022-07-04T01:09:10;96317.88;;;19.15;86.89
13604;BME280;24578;48.264;11.436;2022-07-04T01:12:10;96316.75;;;19.10;86.48
13604;BME280;24578;48.264;11.436;2022-07-04T01:15:11;96314.13;;;19.10;87.04
13604;BME280;24578;48.264;11.436;2022-07-04T01:18:12;96314.75;;;19.04;88.49
13604;BME280;24578;48.264;11.436;2022-07-04T01:21:12;96317.19;;;18.89;90.04
13604;BME280;24578;48.264;11.436;2022-07-04T01:24:13;96316.34;;;18.80;91.04
13604;BME280;24578;48.264;11.436;2022-07-04T01:27:14;96317.81;;;18.74;91.33
13604;BME280;24578;48.264;11.436;2022-07-04T01:30:15;96332.53;;;18.67;92.63
13604;BME280;24578;48.264;11.436;2022-07-04T01:33:16;96339.34;;;18.51;93.76
13604;BME280;24578;48.264;11.436;2022-07-04T01:36:18;96337.31;;;18.29;98.62
13604;BME280;24578;48.264;11.436;2022-07-04T01:39:19;96332.63;;;18.14;99.98
13604;BME280;24578;48.264;11.436;2022-07-04T01:42:19;96317.69;;;18.06;100.00
13604;BME280;24578;48.264;11.436;2022-07-04T01:45:20;96313.47;;;18.05;99.92
13604;BME280;24578;48.264;11.436;2022-07-04T01:48:20;96310.97;;;18.04;99.90
13604;BME280;24578;48.264;11.436;2022-07-04T01:51:21;96309.34;;;18.03;99.37
13604;BME280;24578;48.264;11.436;2022-07-04T01:54:21;96303.78;;;18.06;98.69
13604;BME280;24578;48.264;11.436;2022-07-04T01:57:22;96302.34;;;18.11;98.14
13604;BME280;24578;48.264;11.436;2022-07-04T02:00:23;96294.34;;;18.13;98.09
13604;BME280;24578;48.264;11.436;2022-07-04T02:03:42;96289.25;;;18.11;98.55
13604;BME280;24578;48.264;11.436;2022-07-04T02:06:43;96292.84;;;18.10;98.41
13604;BME280;24578;48.264;11.436;2022-07-04T02:09:44;96296.28;;;18.11;98.24
13604;BME280;24578;48.264;11.436;2022-07-04T02:12:45;96297.94;;;18.12;98.32
13604;BME280;24578;48.264;11.436;2022-07-04T02:16:04;96288.09;;;18.14;97.98
13604;BME280;24578;48.264;11.436;2022-07-04T02:19:04;96282.56;;;18.17;97.24
13604;BME280;24578;48.264;11.436;2022-07-04T02:22:05;96279.94;;;18.17;96.26
13604;BME280;24578;48.264;11.436;2022-07-04T02:25:06;96274.56;;;18.19;95.78
13604;BME280;24578;48.264;11.436;2022-07-04T02:28:07;96275.72;;;18.24;95.57
13604;BME280;24578;48.264;11.436;2022-07-04T02:31:07;96278.84;;;18.28;95.38
13604;BME280;24578;48.264;11.436;2022-07-04T02:34:08;96283.91;;;18.30;95.35
13604;BME280;24578;48.264;11.436;2022-07-04T02:37:09;96296.56;;;18.34;94.83
13604;BME280;24578;48.264;11.436;2022-07-04T02:40:10;96295.41;;;18.37;94.89
13604;BME280;24578;48.264;11.436;2022-07-04T02:43:10;96284.94;;;18.37;94.94
13604;BME280;24578;48.264;11.436;2022-07-04T02:46:11;96293.09;;;18.34;95.08
13604;BME280;24578;48.264;11.436;2022-07-04T02:49:11;96302.91;;;18.32;95.46
13604;BME280;24578;48.264;11.436;2022-07-04T02:52:12;96299.97;;;18.26;95.53
13604;BME280;24578;48.264;11.436;2022-07-04T02:55:13;96303.56;;;18.25;95.43
13604;BME280;24578;48.264;11.436;2022-07-04T02:58:14;96301.91;;;18.24;95.58
13604;BME280;24578;48.264;11.436;2022-07-04T03:01:15;96308.28;;;18.22;96.01
13604;BME280;24578;48.264;11.436;2022-07-04T03:04:15;96310.25;;;18.20;95.96
13604;BME280;24578;48.264;11.436;2022-07-04T03:07:16;96308.59;;;18.19;96.36
13604;BME280;24578;48.264;11.436;2022-07-04T03:10:16;96312.88;;;18.20;96.45
13604;BME280;24578;48.264;11.436;2022-07-04T03:13:18;96313.31;;;18.15;96.85
13604;BME280;24578;48.264;11.436;2022-07-04T03:16:19;96319.38;;;18.16;97.09
13604;BME280;24578;48.264;11.436;2022-07-04T03:19:20;96327.38;;;18.14;97.10
13604;BME280;24578;48.264;11.436;2022-07-04T03:22:20;96322.47;;;18.11;97.47
13604;BME280;24578;48.264;11.436;2022-07-04T03:25:21;96329.16;;;18.05;98.05
13604;BME280;24578;48.264;11.436;2022-07-04T03:28:21;96324.38;;;18.01;98.47
13604;BME280;24578;48.264;11.436;2022-07-04T03:31:22;96329.94;;;17.98;98.94
13604;BME280;24578;48.264;11.436;2022-07-04T03:34:23;96333.66;;;17.95;99.02
13604;BME280;24578;48.264;11.436;2022-07-04T03:37:24;96323.47;;;17.92;99.40
13604;BME280;24578;48.264;11.436;2022-07-04T03:40:24;96335.59;;;17.93;99.39
13604;BME280;24578;48.264;11.436;2022-07-04T03:43:28;96337.53;;;17.91;99.94
13604;BME280;24578;48.264;11.436;2022-07-04T03:46:29;96328.72;;;17.92;100.00
13604;BME280;24578;48.264;11.436;2022-07-04T03:49:29;96338.06;;;17.94;100.00
13604;BME280;24578;48.264;11.436;2022-07-04T03:52:30;96350.72;;;17.99;100.00
13604;BME280;24578;48.264;11.436;2022-07-04T03:55:30;96355.50;;;18.04;100.00
13604;BME280;24578;48.264;11.436;2022-07-04T03:58:31;96356.34;;;18.04;100.00
13604;BME280;24578;48.264;11.436;2022-07-04T04:01:31;96348.63;;;18.03;100.00
13604;BME280;24578;48.264;11.436;2022-07-04T04:04:32;96353.06;;;18.10;100.00
13604;BME280;24578;48.264;11.436;2022-07-04T04:08:01;96362.09;;;18.16;100.00
13604;BME280;24578;48.264;11.436;2022-07-04T04:11:01;96378.50;;;18.18;100.00
13604;BME280;24578;48.264;11.436;2022-07-04T04:14:02;96386.03;;;18.21;100.00
13604;BME280;24578;48.264;11.436;2022-07-04T04:17:03;96392.63;;;18.25;100.00
13604;BME280;24578;48.264;11.436;2022-07-04T04:20:04;96387.72;;;18.31;100.00
13604;BME280;24578;48.264;11.436;2022-07-04T04:23:05;96406.91;;;18.31;100.00
13604;BME280;24578;48.264;11.436;2022-07-04T04:26:06;96413.28;;;18.29;100.00
13604;BME280;24578;48.264;11.436;2022-07-04T04:29:06;96406.91;;;18.31;100.00
13604;BME280;24578;48.264;11.436;2022-07-04T04:32:07;96406.06;;;18.31;100.00
13604;BME280;24578;48.264;11.436;2022-07-04T04:35:08;96403.13;;;18.34;100.00
13604;BME280;24578;48.264;11.436;2022-07-04T04:38:08;96409.25;;;18.42;100.00
13604;BME280;24578;48.264;11.436;2022-07-04T04:41:09;96399.31;;;18.54;100.00
13604;BME280;24578;48.264;11.436;2022-07-04T04:44:09;96399.03;;;18.66;100.00
13604;BME280;24578;48.264;11.436;2022-07-04T04:47:10;96397.44;;;18.73;100.00
13604;BME280;24578;48.264;11.436;2022-07-04T04:50:11;96402.88;;;18.80;100.00
13604;BME280;24578;48.264;11.436;2022-07-04T04:53:12;96399.09;;;18.82;100.00
13604;BME280;24578;48.264;11.436;2022-07-04T04:56:13;96403.19;;;18.85;100.00
13604;BME280;24578;48.264;11.436;2022-07-04T04:59:14;96426.34;;;18.90;100.00
13604;BME280;24578;48.264;11.436;2022-07-04T05:02:14;96429.97;;;18.97;100.00
13604;BME280;24578;48.264;11.436;2022-07-04T05:05:15;96440.19;;;19.08;100.00
13604;BME280;24578;48.264;11.436;2022-07-04T05:08:16;96440.88;;;19.19;98.81
13604;BME280;24578;48.264;11.436;2022-07-04T05:11:17;96441.56;;;19.29;97.28
13604;BME280;24578;48.264;11.436;2022-07-04T05:14:18;96444.16;;;19.29;96.65
13604;BME280;24578;48.264;11.436;2022-07-04T05:17:18;96446.47;;;19.32;95.91
13604;BME280;24578;48.264;11.436;2022-07-04T05:20:19;96452.22;;;19.27;96.75
13604;BME280;24578;48.264;11.436;2022-07-04T05:23:20;96464.19;;;19.22;96.20
13604;BME280;24578;48.264;11.436;2022-07-04T05:26:21;96458.09;;;19.13;96.59
13604;BME280;24578;48.264;11.436;2022-07-04T05:29:24;96457.56;;;19.09;96.08
13604;BME280;24578;48.264;11.436;2022-07-04T05:32:26;96457.75;;;19.16;95.49
13604;BME280;24578;48.264;11.436;2022-07-04T05:35:27;96455.81;;;19.35;94.28
13604;BME280;24578;48.264;11.436;2022-07-04T05:38:28;96467.34;;;19.42;93.35
13604;BME280;24578;48.264;11.436;2022-07-04T05:41:28;96462.41;;;19.47;92.60
13604;BME280;24578;48.264;11.436;2022-07-04T05:44:29;96460.16;;;19.69;92.24
13604;BME280;24578;48.264;11.436;2022-07-04T05:47:29;96465.25;;;19.78;90.78
13604;BME280;24578;48.264;11.436;2022-07-04T05:50:30;96467.75;;;19.97;90.15
13604;BME280;24578;48.264;11.436;2022-07-04T05:53:31;96459.50;;;20.24;89.33
13604;BME280;24578;48.264;11.436;2022-07-04T05:56:31;96466.88;;;20.37;87.11
13604;BME280;24578;48.264;11.436;2022-07-04T05:59:32;96475.69;;;20.69;86.00
13604;BME280;24578;48.264;11.436;2022-07-04T06:02:33;96481.91;;;20.85;84.71
13604;BME280;24578;48.264;11.436;2022-07-04T06:05:34;96473.69;;;20.88;84.91
13604;BME280;24578;48.264;11.436;2022-07-04T06:08:34;96471.72;;;20.90;84.46
13604;BME280;24578;48.264;11.436;2022-07-04T06:11:35;96473.22;;;20.76;84.56
13604;BME280;24578;48.264;11.436;2022-07-04T06:14:35;96479.47;;;20.75;84.52
13604;BME280;24578;48.264;11.436;2022-07-04T06:17:37;96480.44;;;20.74;84.58
13604;BME280;24578;48.264;11.436;2022-07-04T06:20:38;96491.63;;;20.76;84.75
13604;BME280;24578;48.264;11.436;2022-07-04T06:23:40;96490.81;;;20.67;84.62
13604;BME280;24578;48.264;11.436;2022-07-04T06:26:40;96483.25;;;20.64;85.04
13604;BME280;24578;48.264;11.436;2022-07-04T06:29:41;96481.31;;;20.58;85.11
13604;BME280;24578;48.264;11.436;2022-07-04T06:35:49;96476.66;;;20.85;84.43
13604;BME280;24578;48.264;11.436;2022-07-04T06:38:54;96479.53;;;21.07;82.81
13604;BME280;24578;48.264;11.436;2022-07-04T06:41:55;96479.41;;;21.32;81.88
13604;BME280;24578;48.264;11.436;2022-07-04T06:44:56;96475.34;;;21.52;80.86
13604;BME280;24578;48.264;11.436;2022-07-04T06:47:57;96476.91;;;21.70;79.35
13604;BME280;24578;48.264;11.436;2022-07-04T06:50:57;96479.81;;;21.75;78.41
13604;BME280;24578;48.264;11.436;2022-07-04T06:53:58;96481.00;;;21.72;78.00
13604;BME280;24578;48.264;11.436;2022-07-04T06:56:59;96485.84;;;21.60;78.01
13604;BME280;24578;48.264;11.436;2022-07-04T06:59:59;96486.41;;;21.48;77.88
13604;BME280;24578;48.264;11.436;2022-07-04T07:03:01;96490.13;;;21.30;78.41
13604;BME280;24578;48.264;11.436;2022-07-04T07:06:02;96498.88;;;21.22;79.42
13604;BME280;24578;48.264;11.436;2022-07-04T07:09:03;96490.75;;;21.01;79.50
13604;BME280;24578;48.264;11.436;2022-07-04T07:12:04;96490.09;;;20.98;79.24
13604;BME280;24578;48.264;11.436;2022-07-04T07:15:05;96498.03;;;20.90;79.31
13604;BME280;24578;48.264;11.436;2022-07-04T07:18:06;96493.59;;;20.82;80.48
13604;BME280;24578;48.264;11.436;2022-07-04T07:21:06;96500.53;;;20.67;81.52
13604;BME280;24578;48.264;11.436;2022-07-04T07:24:07;96501.22;;;20.44;82.95
13604;BME280;24578;48.264;11.436;2022-07-04T07:27:08;96488.75;;;20.30;85.60
13604;BME280;24578;48.264;11.436;2022-07-04T07:30:09;96496.13;;;20.43;85.68
13604;BME280;24578;48.264;11.436;2022-07-04T07:33:10;96489.84;;;20.52;86.16
13604;BME280;24578;48.264;11.436;2022-07-04T07:36:11;96487.03;;;20.62;85.11
13604;BME280;24578;48.264;11.436;2022-07-04T07:39:11;96473.53;;;20.73;84.16
13604;BME280;24578;48.264;11.436;2022-07-04T07:42:12;96476.66;;;20.85;84.24
13604;BME280;24578;48.264;11.436;2022-07-04T07:45:12;96464.75;;;20.97;83.83
13604;BME280;24578;48.264;11.436;2022-07-04T07:48:13;96460.50;;;20.96;83.25
13604;BME280;24578;48.264;11.436;2022-07-04T07:51:13;96456.19;;;21.04;83.01
13604;BME280;24578;48.264;11.436;2022-07-04T07:54:15;96456.59;;;21.24;81.97
13604;BME280;24578;48.264;11.436;2022-07-04T07:57:17;96462.59;;;21.41;80.50
13604;BME280;24578;48.264;11.436;2022-07-04T08:00:18;96449.47;;;21.64;79.57
13604;BME280;24578;48.264;11.436;2022-07-04T08:03:18;96455.97;;;21.77;79.11
13604;BME280;24578;48.264;11.436;2022-07-04T08:06:38;96460.44;;;22.29;77.13
13604;BME280;24578;48.264;11.436;2022-07-04T08:09:38;96467.53;;;22.82;75.06
13604;BME280;24578;48.264;11.436;2022-07-04T08:12:39;96464.56;;;23.07;73.65
13604;BME280;24578;48.264;11.436;2022-07-04T08:15:39;96459.09;;;23.82;69.89
13604;BME280;24578;48.264;11.436;2022-07-04T08:18:40;96453.03;;;24.31;66.76
13604;BME280;24578;48.264;11.436;2022-07-04T08:21:40;96442.78;;;24.50;67.27
13604;BME280;24578;48.264;11.436;2022-07-04T08:24:42;96442.53;;;24.45;67.13
13604;BME280;24578;48.264;11.436;2022-07-04T08:27:43;96436.13;;;25.03;64.72
13604;BME280;24578;48.264;11.436;2022-07-04T08:30:44;96426.97;;;26.01;60.04
13604;BME280;24578;48.264;11.436;2022-07-04T08:33:44;96410.63;;;26.44;58.07
13604;BME280;24578;48.264;11.436;2022-07-04T08:36:47;96410.88;;;27.02;56.42
13604;BME280;24578;48.264;11.436;2022-07-04T08:39:47;96412.44;;;28.38;51.40
13604;BME280;24578;48.264;11.436;2022-07-04T08:42:49;96414.03;;;29.32;47.82
13604;BME280;24578;48.264;11.436;2022-07-04T08:45:53;96417.31;;;29.15;48.13
13604;BME280;24578;48.264;11.436;2022-07-04T08:48:55;96412.22;;;30.70;44.00
13604;BME280;24578;48.264;11.436;2022-07-04T08:52:04;96390.38;;;32.62;41.73
13604;BME280;24578;48.264;11.436;2022-07-04T08:55:09;96387.50;;;33.68;38.16
13604;BME280;24578;48.264;11.436;2022-07-04T08:58:28;96383.97;;;33.95;36.60
13604;BME280;24578;48.264;11.436;2022-07-04T09:01:33;96392.38;;;34.47;35.05
13604;BME280;24578;48.264;11.436;2022-07-04T09:04:34;96403.16;;;35.16;33.64
13604;BME280;24578;48.264;11.436;2022-07-04T09:07:35;96400.00;;;34.71;32.34
13604;BME280;24578;48.264;11.436;2022-07-04T09:10:37;96399.66;;;35.31;33.13
13604;BME280;24578;48.264;11.436;2022-07-04T09:13:38;96397.78;;;34.57;32.39
13604;BME280;24578;48.264;11.436;2022-07-04T09:16:39;96380.53;;;35.01;31.67
13604;BME280;24578;48.264;11.436;2022-07-04T09:19:40;96379.50;;;36.42;29.83
13604;BME280;24578;48.264;11.436;2022-07-04T09:22:42;96393.56;;;36.08;28.50
13604;BME280;24578;48.264;11.436;2022-07-04T09:25:42;96408.94;;;34.87;30.86
13604;BME280;24578;48.264;11.436;2022-07-04T09:28:54;96406.91;;;35.20;30.21
13604;BME280;24578;48.264;11.436;2022-07-04T09:31:57;96402.06;;;35.17;29.55
13604;BME280;24578;48.264;11.436;2022-07-04T09:34:58;96407.75;;;35.36;29.34
13604;BME280;24578;48.264;11.436;2022-07-04T09:38:03;96394.91;;;35.85;27.56
13604;BME280;24578;48.264;11.436;2022-07-04T09:41:04;96389.75;;;36.14;28.05
13604;BME280;24578;48.264;11.436;2022-07-04T09:44:42;96408.91;;;36.12;28.16
13604;BME280;24578;48.264;11.436;2022-07-04T09:47:45;96394.63;;;36.07;27.72
13604;BME280;24578;48.264;11.436;2022-07-04T09:50:46;96387.63;;;36.16;27.20
13604;BME280;24578;48.264;11.436;2022-07-04T09:53:47;96384.34;;;36.35;27.84
13604;BME280;24578;48.264;11.436;2022-07-04T09:56:50;96402.34;;;36.55;26.83
13604;BME280;24578;48.264;11.436;2022-07-04T09:59:53;96395.81;;;36.77;28.42
13604;BME280;24578;48.264;11.436;2022-07-04T10:02:56;96398.44;;;36.92;27.35
13604;BME280;24578;48.264;11.436;2022-07-04T10:06:06;96402.41;;;36.29;28.43
13604;BME280;24578;48.264;11.436;2022-07-04T10:09:17;96397.06;;;36.19;30.70
13604;BME280;24578;48.264;11.436;2022-07-04T10:12:25;96405.94;;;34.78;29.79
13604;BME280;24578;48.264;11.436;2022-07-04T10:15:27;96394.66;;;33.90;31.80
13604;BME280;24578;48.264;11.436;2022-07-04T10:18:27;96397.97;;;33.37;33.21
13604;BME280;24578;48.264;11.436;2022-07-04T10:21:29;96399.44;;;33.55;33.69
13604;BME280;24578;48.264;11.436;2022-07-04T10:24:29;96396.97;;;33.76;32.51
13604;BME280;24578;48.264;11.436;2022-07-04T10:27:30;96395.06;;;33.44;32.81
13604;BME280;24578;48.264;11.436;2022-07-04T10:30:35;96403.03;;;33.66;32.55
13604;BME280;24578;48.264;11.436;2022-07-04T10:33:37;96410.09;;;33.45;32.22
13604;BME280;24578;48.264;11.436;2022-07-04T10:36:38;96415.00;;;32.82;33.63
13604;BME280;24578;48.264;11.436;2022-07-04T10:39:38;96408.94;;;32.69;35.94
13604;BME280;24578;48.264;11.436;2022-07-04T10:42:40;96410.50;;;32.87;34.65
13604;BME280;24578;48.264;11.436;2022-07-04T10:45:41;96401.88;;;33.30;34.85
13604;BME280;24578;48.264;11.436;2022-07-04T10:52:13;96400.16;;;33.46;32.46
13604;BME280;24578;48.264;11.436;2022-07-04T10:55:14;96407.66;;;33.21;33.88
13604;BME280;24578;48.264;11.436;2022-07-04T10:58:39;96401.44;;;33.16;33.71
13604;BME280;24578;48.264;11.436;2022-07-04T11:01:45;96399.81;;;33.15;34.46
13604;BME280;24578;48.264;11.436;2022-07-04T11:07:57;96396.06;;;32.88;33.57
13604;BME280;24578;48.264;11.436;2022-07-04T11:10:58;96386.91;;;32.84;33.66
13604;BME280;24578;48.264;11.436;2022-07-04T11:14:35;96383.66;;;33.04;33.44
13604;BME280;24578;48.264;11.436;2022-07-04T11:17:37;96386.53;;;32.98;31.70
13604;BME280;24578;48.264;11.436;2022-07-04T11:20:42;96371.38;;;33.08;31.90
13604;BME280;24578;48.264;11.436;2022-07-04T11:23:49;96369.03;;;33.39;33.36
13604;BME280;24578;48.264;11.436;2022-07-04T11:26:49;96372.94;;;33.32;31.87
13604;BME280;24578;48.264;11.436;2022-07-04T11:29:54;96368.28;;;33.49;32.36
13604;BME280;24578;48.264;11.436;2022-07-04T11:32:55;96369.59;;;32.75;32.96
13604;BME280;24578;48.264;11.436;2022-07-04T11:36:18;96362.38;;;33.25;32.78
13604;BME280;24578;48.264;11.436;2022-07-04T11:39:21;96353.69;;;33.13;32.93
13604;BME280;24578;48.264;11.436;2022-07-04T11:42:21;96354.59;;;33.23;33.13
13604;BME280;24578;48.264;11.436;2022-07-04T11:45:40;96348.16;;;33.47;31.89
13604;BME280;24578;48.264;11.436;2022-07-04T11:48:41;96347.81;;;33.38;31.23
13604;BME280;24578;48.264;11.436;2022-07-04T11:51:47;96352.31;;;33.97;32.90
13604;BME280;24578;48.264;11.436;2022-07-04T11:54:49;96351.25;;;34.46;31.22
13604;BME280;24578;48.264;11.436;2022-07-04T11:57:51;96349.63;;;33.97;32.80
13604;BME280;24578;48.264;11.436;2022-07-04T12:00:55;96346.09;;;33.92;32.08
13604;BME280;24578;48.264;11.436;2022-07-04T12:03:56;96348.97;;;33.25;33.50
13604;BME280;24578;48.264;11.436;2022-07-04T12:06:56;96348.47;;;33.28;34.48
13604;BME280;24578;48.264;11.436;2022-07-04T12:10:07;96350.81;;;32.92;34.67
13604;BME280;24578;48.264;11.436;2022-07-04T12:13:14;96347.19;;;32.59;35.34
13604;BME280;24578;48.264;11.436;2022-07-04T12:16:17;96344.53;;;32.59;36.63
13604;BME280;24578;48.264;11.436;2022-07-04T12:19:17;96353.91;;;32.61;35.91
13604;BME280;24578;48.264;11.436;2022-07-04T12:22:30;96346.97;;;32.21;35.07
13604;BME280;24578;48.264;11.436;2022-07-04T12:25:34;96334.78;;;31.91;35.96
13604;BME280;24578;48.264;11.436;2022-07-04T12:28:41;96331.31;;;32.74;35.07
13604;BME280;24578;48.264;11.436;2022-07-04T12:31:43;96320.09;;;33.32;33.52
13604;BME280;24578;48.264;11.436;2022-07-04T12:34:44;96321.56;;;33.78;33.50
13604;BME280;24578;48.264;11.436;2022-07-04T12:38:09;96318.19;;;33.55;32.73
13604;BME280;24578;48.264;11.436;2022-07-04T12:41:12;96305.84;;;33.54;33.45
13604;BME280;24578;48.264;11.436;2022-07-04T12:44:20;96297.81;;;33.59;32.67
13604;BME280;24578;48.264;11.436;2022-07-04T12:47:21;96303.53;;;33.35;31.60
13604;BME280;24578;48.264;11.436;2022-07-04T12:50:27;96290.59;;;33.00;33.02
13604;BME280;24578;48.264;11.436;2022-07-04T12:53:36;96290.84;;;32.98;33.02
13604;BME280;24578;48.264;11.436;2022-07-04T12:56:42;96287.31;;;33.25;33.24
13604;BME280;24578;48.264;11.436;2022-07-04T12:59:43;96294.03;;;32.73;32.64
13604;BME280;24578;48.264;11.436;2022-07-04T13:02:44;96288.75;;;32.11;33.35
13604;BME280;24578;48.264;11.436;2022-07-04T13:05:44;96281.38;;;32.90;33.87
13604;BME280;24578;48.264;11.436;2022-07-04T13:08:45;96285.19;;;33.27;33.08
13604;BME280;24578;48.264;11.436;2022-07-04T13:11:46;96274.34;;;33.12;33.17
13604;BME280;24578;48.264;11.436;2022-07-04T13:15:06;96268.56;;;32.70;33.25
13604;BME280;24578;48.264;11.436;2022-07-04T13:18:07;96265.72;;;32.55;34.23
13604;BME280;24578;48.264;11.436;2022-07-04T13:21:07;96258.03;;;32.86;34.42
13604;BME280;24578;48.264;11.436;2022-07-04T13:24:08;96265.00;;;33.19;32.65
13604;BME280;24578;48.264;11.436;2022-07-04T13:27:08;96265.56;;;33.49;32.25
13604;BME280;24578;48.264;11.436;2022-07-04T13:30:09;96256.50;;;33.55;31.10
13604;BME280;24578;48.264;11.436;2022-07-04T13:33:10;96260.69;;;33.46;33.13
13604;BME280;24578;48.264;11.436;2022-07-04T13:36:10;96254.31;;;33.90;31.82
13604;BME280;24578;48.264;11.436;2022-07-04T13:39:11;96245.69;;;34.46;31.28
13604;BME280;24578;48.264;11.436;2022-07-04T13:42:12;96242.38;;;34.34;30.21
13604;BME280;24578;48.264;11.436;2022-07-04T13:45:13;96245.03;;;34.23;30.92
13604;BME280;24578;48.264;11.436;2022-07-04T13:48:15;96237.81;;;33.70;32.66
13604;BME280;24578;48.264;11.436;2022-07-04T13:51:15;96242.09;;;33.01;32.47
13604;BME280;24578;48.264;11.436;2022-07-04T13:54:16;96241.88;;;32.53;34.09
13604;BME280;24578;48.264;11.436;2022-07-04T13:57:17;96242.75;;;32.14;34.24
13604;BME280;24578;48.264;11.436;2022-07-04T14:00:17;96244.09;;;32.17;35.63
13604;BME280;24578;48.264;11.436;2022-07-04T14:03:18;96227.66;;;32.53;33.60
13604;BME280;24578;48.264;11.436;2022-07-04T14:06:19;96226.16;;;32.89;32.63
13604;BME280;24578;48.264;11.436;2022-07-04T14:09:19;96221.13;;;32.71;31.89
13604;BME280;24578;48.264;11.436;2022-07-04T14:12:20;96217.97;;;32.46;32.16
13604;BME280;24578;48.264;11.436;2022-07-04T14:15:20;96222.91;;;32.32;33.12
13604;BME280;24578;48.264;11.436;2022-07-04T14:18:21;96224.06;;;32.42;32.12
13604;BME280;24578;48.264;11.436;2022-07-04T14:21:22;96225.59;;;32.60;32.84
13604;BME280;24578;48.264;11.436;2022-07-04T14:24:22;96235.44;;;32.27;33.42
13604;BME280;24578;48.264;11.436;2022-07-04T14:27:25;96228.03;;;31.95;34.09
13604;BME280;24578;48.264;11.436;2022-07-04T14:30:26;96227.66;;;31.86;34.45
13604;BME280;24578;48.264;11.436;2022-07-04T14:33:27;96216.88;;;31.81;34.30
13604;BME280;24578;48.264;11.436;2022-07-04T14:36:27;96218.72;;;31.41;35.40
13604;BME280;24578;48.264;11.436;2022-07-04T14:39:28;96219.97;;;31.55;34.79
13604;BME280;24578;48.264;11.436;2022-07-04T14:42:28;96219.44;;;31.36;35.37
13604;BME280;24578;48.264;11.436;2022-07-04T14:45:29;96221.78;;;31.16;35.73
13604;BME280;24578;48.264;11.436;2022-07-04T14:48:30;96213.66;;;30.93;34.78
13604;BME280;24578;48.264;11.436;2022-07-04T14:51:31;96205.69;;;30.64;35.21
13604;BME280;24578;48.264;11.436;2022-07-04T14:54:31;96208.16;;;30.83;35.39
13604;BME280;24578;48.264;11.436;2022-07-04T14:57:32;96208.63;;;30.80;36.31
13604;BME280;24578;48.264;11.436;2022-07-04T15:00:32;96200.63;;;30.80;35.08
13604;BME280;24578;48.264;11.436;2022-07-04T15:03:33;96194.53;;;30.38;37.16
13604;BME280;24578;48.264;11.436;2022-07-04T15:06:33;96187.00;;;30.35;36.81
13604;BME280;24578;48.264;11.436;2022-07-04T15:09:34;96189.34;;;30.32;36.83
13604;BME280;24578;48.264;11.436;2022-07-04T15:12:35;96183.56;;;30.23;36.59
13604;BME280;24578;48.264;11.436;2022-07-04T15:15:36;96180.16;;;29.87;37.12
13604;BME280;24578;48.264;11.436;2022-07-04T15:18:36;96179.25;;;29.69;37.54
13604;BME280;24578;48.264;11.436;2022-07-04T15:21:37;96181.25;;;29.50;37.38
13604;BME280;24578;48.264;11.436;2022-07-04T15:24:56;96168.97;;;29.37;37.20
13604;BME280;24578;48.264;11.436;2022-07-04T15:27:57;96165.81;;;29.16;37.22
13604;BME280;24578;48.264;11.436;2022-07-04T15:30:57;96162.56;;;29.14;37.90
13604;BME280;24578;48.264;11.436;2022-07-04T15:34:02;96172.88;;;29.11;37.99
13604;BME280;24578;48.264;11.436;2022-07-04T15:37:03;96176.69;;;28.91;37.82
13604;BME280;24578;48.264;11.436;2022-07-04T15:40:04;96172.78;;;28.63;37.89
13604;BME280;24578;48.264;11.436;2022-07-04T15:43:05;96172.59;;;28.46;38.60
13604;BME280;24578;48.264;11.436;2022-07-04T15:46:05;96179.78;;;28.46;39.67
13604;BME280;24578;48.264;11.436;2022-07-04T15:49:06;96181.03;;;28.43;39.50
13604;BME280;24578;48.264;11.436;2022-07-04T15:52:07;96179.13;;;28.32;39.65
13604;BME280;24578;48.264;11.436;2022-07-04T15:55:09;96178.09;;;28.33;39.91
13604;BME280;24578;48.264;11.436;2022-07-04T15:58:10;96178.63;;;28.23;39.95
13604;BME280;24578;48.264;11.436;2022-07-04T16:01:11;96180.78;;;28.14;40.45
13604;BME280;24578;48.264;11.436;2022-07-04T16:04:11;96173.97;;;28.00;40.67